sensor_id;sensor_type;location;lat;lon;timestamp;temperature;humidity
52787;DHT22;38661;53.152;5.846;2022-11-20T00:00:51;0.20;89.80
52787;DHT22;38661;53.152;5.846;2022-11-20T00:03:16;0.20;89.70
52787;DHT22;38661;53.152;5.846;2022-11-20T00:05:43;0.20;89.60
52787;DHT22;38661;53.152;5.846;2022-11-20T00:08:09;0.20;89.50
52787;DHT22;38661;53.152;5.846;2022-11-20T00:10:40;0.20;89.50
52787;DHT22;38661;53.152;5.846;2022-11-20T00:13:07;0.20;89.40
52787;DHT22;38661;53.152;5.846;2022-11-20T00:15:33;0.30;89.40
52787;DHT22;38661;53.152;5.846;2022-11-20T00:17:59;0.30;89.20
52787;DHT22;38661;53.152;5.846;2022-11-20T00:20:25;0.30;89.20
52787;DHT22;38661;53.152;5.846;2022-11-20T00:22:51;0.30;89.10
52787;DHT22;38661;53.152;5.846;2022-11-20T00:25:17;0.40;89.00
52787;DHT22;38661;53.152;5.846;2022-11-20T00:27:42;0.40;89.00
52787;DHT22;38661;53.152;5.846;2022-11-20T00:30:09;0.40;88.90
52787;DHT22;38661;53.152;5.846;2022-11-20T00:32:34;0.40;88.90
52787;DHT22;38661;53.152;5.846;2022-11-20T00:35:00;0.30;88.90
52787;DHT22;38661;53.152;5.846;2022-11-20T00:37:26;0.40;88.90
52787;DHT22;38661;53.152;5.846;2022-11-20T00:39:51;0.40;89.00
52787;DHT22;38661;53.152;5.846;2022-11-20T00:42:17;0.30;89.00
52787;DHT22;38661;53.152;5.846;2022-11-20T00:44:43;0.30;89.00
52787;DHT22;38661;53.152;5.846;2022-11-20T00:47:08;0.30;89.10
52787;DHT22;38661;53.152;5.846;2022-11-20T00:49:34;0.30;89.30
52787;DHT22;38661;53.152;5.846;2022-11-20T00:52:00;0.40;89.40
52787;DHT22;38661;53.152;5.846;2022-11-20T00:54:25;0.40;89.30
52787;DHT22;38661;53.152;5.846;2022-11-20T00:56:54;0.40;89.30
52787;DHT22;38661;53.152;5.846;2022-11-20T00:59:20;0.40;89.10
52787;DHT22;38661;53.152;5.846;2022-11-20T01:01:45;0.40;89.00
52787;DHT22;38661;53.152;5.846;2022-11-20T01:04:11;0.40;89.00
52787;DHT22;38661;53.152;5.846;2022-11-20T01:06:39;0.40;88.80
52787;DHT22;38661;53.152;5.846;2022-11-20T01:09:11;0.40;88.80
52787;DHT22;38661;53.152;5.846;2022-11-20T01:11:40;0.40;88.80
52787;DHT22;38661;53.152;5.846;2022-11-20T01:14:09;0.40;88.60
52787;DHT22;38661;53.152;5.846;2022-11-20T01:16:38;0.40;88.40
52787;DHT22;38661;53.152;5.846;2022-11-20T01:19:08;0.40;88.50
52787;DHT22;38661;53.152;5.846;2022-11-20T01:21:37;0.40;88.40
52787;DHT22;38661;53.152;5.846;2022-11-20T01:24:05;0.40;88.60
52787;DHT22;38661;53.152;5.846;2022-11-20T01:26:32;0.40;88.60
52787;DHT22;38661;53.152;5.846;2022-11-20T01:28:59;0.40;88.60
52787;DHT22;38661;53.152;5.846;2022-11-20T01:31:30;0.40;88.40
52787;DHT22;38661;53.152;5.846;2022-11-20T01:33:58;0.40;88.50
52787;DHT22;38661;53.152;5.846;2022-11-20T01:36:26;0.50;88.40
52787;DHT22;38661;53.152;5.846;2022-11-20T01:38:57;0.50;88.50
52787;DHT22;38661;53.152;5.846;2022-11-20T01:41:24;0.50;88.40
52787;DHT22;38661;53.152;5.846;2022-11-20T01:44:12;0.50;88.30
52787;DHT22;38661;53.152;5.846;2022-11-20T01:46:56;0.50;88.40
52787;DHT22;38661;53.152;5.846;2022-11-20T01:49:40;0.50;88.30
52787;DHT22;38661;53.152;5.846;2022-11-20T01:52:17;0.50;88.30
52787;DHT22;38661;53.152;5.846;2022-11-20T01:54:56;0.40;88.40
52787;DHT22;38661;53.152;5.846;2022-11-20T01:57:25;0.40;88.30
52787;DHT22;38661;53.152;5.846;2022-11-20T02:00:08;0.40;88.20
52787;DHT22;38661;53.152;5.846;2022-11-20T02:02:36;0.40;88.30
52787;DHT22;38661;53.152;5.846;2022-11-20T02:05:16;0.40;88.30
52787;DHT22;38661;53.152;5.846;2022-11-20T02:07:42;0.40;88.30
52787;DHT22;38661;53.152;5.846;2022-11-20T02:10:08;0.40;88.50
52787;DHT22;38661;53.152;5.846;2022-11-20T02:12:34;0.40;88.60
52787;DHT22;38661;53.152;5.846;2022-11-20T02:15:18;0.30;88.70
52787;DHT22;38661;53.152;5.846;2022-11-20T02:17:43;0.30;89.00
52787;DHT22;38661;53.152;5.846;2022-11-20T02:20:09;0.30;89.10
52787;DHT22;38661;53.152;5.846;2022-11-20T02:22:46;0.30;89.20
52787;DHT22;38661;53.152;5.846;2022-11-20T02:25:14;0.30;89.10
52787;DHT22;38661;53.152;5.846;2022-11-20T02:27:40;0.30;89.30
52787;DHT22;38661;53.152;5.846;2022-11-20T02:30:07;0.30;89.30
52787;DHT22;38661;53.152;5.846;2022-11-20T02:32:35;0.20;89.40
52787;DHT22;38661;53.152;5.846;2022-11-20T02:37:59;0.30;89.50
52787;DHT22;38661;53.152;5.846;2022-11-20T02:40:26;0.20;89.60
52787;DHT22;38661;53.152;5.846;2022-11-20T02:42:53;0.30;89.70
52787;DHT22;38661;53.152;5.846;2022-11-20T02:45:18;0.30;89.80
52787;DHT22;38661;53.152;5.846;2022-11-20T02:47:44;0.40;89.80
52787;DHT22;38661;53.152;5.846;2022-11-20T02:50:10;0.40;89.80
52787;DHT22;38661;53.152;5.846;2022-11-20T02:52:36;0.40;89.70
52787;DHT22;38661;53.152;5.846;2022-11-20T02:55:02;0.40;89.50
52787;DHT22;38661;53.152;5.846;2022-11-20T02:57:27;0.40;89.50
52787;DHT22;38661;53.152;5.846;2022-11-20T02:59:53;0.50;89.50
52787;DHT22;38661;53.152;5.846;2022-11-20T03:02:19;0.50;89.50
52787;DHT22;38661;53.152;5.846;2022-11-20T03:04:45;0.50;89.30
52787;DHT22;38661;53.152;5.846;2022-11-20T03:07:11;0.50;89.10
52787;DHT22;38661;53.152;5.846;2022-11-20T03:09:37;0.50;89.00
52787;DHT22;38661;53.152;5.846;2022-11-20T03:12:03;0.50;88.90
52787;DHT22;38661;53.152;5.846;2022-11-20T03:14:29;0.50;88.90
52787;DHT22;38661;53.152;5.846;2022-11-20T03:16:55;0.50;88.90
52787;DHT22;38661;53.152;5.846;2022-11-20T03:19:21;0.50;88.90
52787;DHT22;38661;53.152;5.846;2022-11-20T03:21:47;0.60;88.90
52787;DHT22;38661;53.152;5.846;2022-11-20T03:24:13;0.50;88.80
52787;DHT22;38661;53.152;5.846;2022-11-20T03:26:39;0.50;88.70
52787;DHT22;38661;53.152;5.846;2022-11-20T03:29:05;0.50;88.70
52787;DHT22;38661;53.152;5.846;2022-11-20T03:31:36;0.60;88.60
52787;DHT22;38661;53.152;5.846;2022-11-20T03:34:03;0.50;88.50
52787;DHT22;38661;53.152;5.846;2022-11-20T03:36:29;0.50;88.50
52787;DHT22;38661;53.152;5.846;2022-11-20T03:38:56;0.50;88.60
52787;DHT22;38661;53.152;5.846;2022-11-20T03:41:24;0.50;88.50
52787;DHT22;38661;53.152;5.846;2022-11-20T03:44:01;0.50;88.60
52787;DHT22;38661;53.152;5.846;2022-11-20T03:46:27;0.50;88.50
52787;DHT22;38661;53.152;5.846;2022-11-20T03:48:54;0.50;88.40
52787;DHT22;38661;53.152;5.846;2022-11-20T03:51:22;0.40;88.40
52787;DHT22;38661;53.152;5.846;2022-11-20T03:53:50;0.40;88.50
52787;DHT22;38661;53.152;5.846;2022-11-20T03:56:19;0.40;88.40
52787;DHT22;38661;53.152;5.846;2022-11-20T03:58:45;0.30;88.40
52787;DHT22;38661;53.152;5.846;2022-11-20T04:01:13;0.30;88.50
52787;DHT22;38661;53.152;5.846;2022-11-20T04:03:40;0.20;88.50
52787;DHT22;38661;53.152;5.846;2022-11-20T04:06:13;0.10;88.50
52787;DHT22;38661;53.152;5.846;2022-11-20T04:08:39;0.10;88.50
52787;DHT22;38661;53.152;5.846;2022-11-20T04:11:30;0.10;88.50
52787;DHT22;38661;53.152;5.846;2022-11-20T04:14:01;0.10;88.70
52787;DHT22;38661;53.152;5.846;2022-11-20T04:16:30;0.00;88.80
52787;DHT22;38661;53.152;5.846;2022-11-20T04:18:57;0.00;89.00
52787;DHT22;38661;53.152;5.846;2022-11-20T04:21:24;0.00;89.00
52787;DHT22;38661;53.152;5.846;2022-11-20T04:23:51;0.00;89.20
52787;DHT22;38661;53.152;5.846;2022-11-20T04:26:18;0.00;89.20
52787;DHT22;38661;53.152;5.846;2022-11-20T04:28:44;0.00;89.10
52787;DHT22;38661;53.152;5.846;2022-11-20T04:31:15;0.00;89.10
52787;DHT22;38661;53.152;5.846;2022-11-20T04:33:41;-3276.70;89.10
52787;DHT22;38661;53.152;5.846;2022-11-20T04:36:19;-3276.70;88.90
52787;DHT22;38661;53.152;5.846;2022-11-20T04:38:45;-3276.70;88.90
52787;DHT22;38661;53.152;5.846;2022-11-20T04:41:16;-3276.70;89.10
52787;DHT22;38661;53.152;5.846;2022-11-20T04:43:46;-3276.70;89.20
52787;DHT22;38661;53.152;5.846;2022-11-20T04:46:13;-3276.70;89.40
52787;DHT22;38661;53.152;5.846;2022-11-20T04:48:38;-3276.60;89.50
52787;DHT22;38661;53.152;5.846;2022-11-20T04:51:04;-3276.60;89.50
52787;DHT22;38661;53.152;5.846;2022-11-20T04:53:30;-3276.60;89.50
52787;DHT22;38661;53.152;5.846;2022-11-20T04:56:04;-3276.50;89.50
52787;DHT22;38661;53.152;5.846;2022-11-20T04:58:31;-3276.50;89.50
52787;DHT22;38661;53.152;5.846;2022-11-20T05:01:14;-3276.50;89.70
52787;DHT22;38661;53.152;5.846;2022-11-20T05:03:41;-3276.50;89.70
52787;DHT22;38661;53.152;5.846;2022-11-20T05:06:07;-3276.40;89.50
52787;DHT22;38661;53.152;5.846;2022-11-20T05:08:34;-3276.40;89.70
52787;DHT22;38661;53.152;5.846;2022-11-20T05:11:11;-3276.40;89.70
52787;DHT22;38661;53.152;5.846;2022-11-20T05:13:37;-3276.30;89.70
52787;DHT22;38661;53.152;5.846;2022-11-20T05:16:11;-3276.20;89.70
52787;DHT22;38661;53.152;5.846;2022-11-20T05:18:38;-3276.10;89.70
52787;DHT22;38661;53.152;5.846;2022-11-20T05:21:05;-3276.10;89.80
52787;DHT22;38661;53.152;5.846;2022-11-20T05:23:32;-3276.10;89.80
52787;DHT22;38661;53.152;5.846;2022-11-20T05:25:58;-3276.10;89.90
52787;DHT22;38661;53.152;5.846;2022-11-20T05:28:25;-3276.10;89.80
52787;DHT22;38661;53.152;5.846;2022-11-20T05:30:51;-3276.20;90.00
52787;DHT22;38661;53.152;5.846;2022-11-20T05:33:17;-3276.20;90.00
52787;DHT22;38661;53.152;5.846;2022-11-20T05:35:43;-3276.30;89.90
52787;DHT22;38661;53.152;5.846;2022-11-20T05:38:09;-3276.30;89.90
52787;DHT22;38661;53.152;5.846;2022-11-20T05:40:34;-3276.30;89.70
52787;DHT22;38661;53.152;5.846;2022-11-20T05:43:00;-3276.10;89.60
52787;DHT22;38661;53.152;5.846;2022-11-20T05:45:26;-3276.10;89.60
52787;DHT22;38661;53.152;5.846;2022-11-20T05:47:52;-3276.00;89.60
52787;DHT22;38661;53.152;5.846;2022-11-20T05:50:18;-3276.00;89.60
52787;DHT22;38661;53.152;5.846;2022-11-20T05:52:44;-3276.00;89.70
52787;DHT22;38661;53.152;5.846;2022-11-20T05:55:09;-3276.00;89.60
52787;DHT22;38661;53.152;5.846;2022-11-20T05:57:35;-3276.00;89.40
52787;DHT22;38661;53.152;5.846;2022-11-20T06:00:02;-3276.00;89.60
52787;DHT22;38661;53.152;5.846;2022-11-20T06:02:28;-3276.00;89.80
52787;DHT22;38661;53.152;5.846;2022-11-20T06:04:53;-3276.00;89.90
52787;DHT22;38661;53.152;5.846;2022-11-20T06:07:19;-3276.00;90.00
52787;DHT22;38661;53.152;5.846;2022-11-20T06:09:45;-3276.10;90.00
52787;DHT22;38661;53.152;5.846;2022-11-20T06:12:11;-3276.10;89.90
52787;DHT22;38661;53.152;5.846;2022-11-20T06:14:36;-3276.00;89.60
52787;DHT22;38661;53.152;5.846;2022-11-20T06:17:02;-3276.00;89.80
52787;DHT22;38661;53.152;5.846;2022-11-20T06:19:28;-3276.00;89.80
52787;DHT22;38661;53.152;5.846;2022-11-20T06:21:53;-3276.10;89.90
52787;DHT22;38661;53.152;5.846;2022-11-20T06:24:19;-3276.10;90.10
52787;DHT22;38661;53.152;5.846;2022-11-20T06:26:45;-3276.10;90.30
52787;DHT22;38661;53.152;5.846;2022-11-20T06:29:11;-3276.10;90.00
52787;DHT22;38661;53.152;5.846;2022-11-20T06:31:37;-3276.10;90.20
52787;DHT22;38661;53.152;5.846;2022-11-20T06:34:06;-3276.10;90.20
52787;DHT22;38661;53.152;5.846;2022-11-20T06:36:32;-3276.10;90.40
52787;DHT22;38661;53.152;5.846;2022-11-20T06:38:59;-3276.10;90.60
52787;DHT22;38661;53.152;5.846;2022-11-20T06:41:24;-3276.10;90.60
52787;DHT22;38661;53.152;5.846;2022-11-20T06:43:51;-3276.00;90.60
52787;DHT22;38661;53.152;5.846;2022-11-20T06:46:18;-3276.10;90.60
52787;DHT22;38661;53.152;5.846;2022-11-20T06:48:44;-3276.10;90.70
52787;DHT22;38661;53.152;5.846;2022-11-20T06:51:10;-3276.10;90.60
52787;DHT22;38661;53.152;5.846;2022-11-20T06:53:37;-3276.10;90.40
52787;DHT22;38661;53.152;5.846;2022-11-20T06:56:03;-3276.10;90.50
52787;DHT22;38661;53.152;5.846;2022-11-20T06:58:30;-3276.10;90.30
52787;DHT22;38661;53.152;5.846;2022-11-20T07:01:05;-3276.10;90.40
52787;DHT22;38661;53.152;5.846;2022-11-20T07:03:30;-3276.10;90.40
52787;DHT22;38661;53.152;5.846;2022-11-20T07:05:57;-3276.10;90.60
52787;DHT22;38661;53.152;5.846;2022-11-20T07:08:24;-3276.10;90.40
52787;DHT22;38661;53.152;5.846;2022-11-20T07:10:50;-3276.10;90.70
52787;DHT22;38661;53.152;5.846;2022-11-20T07:13:16;-3276.10;90.70
52787;DHT22;38661;53.152;5.846;2022-11-20T07:15:42;-3276.10;90.40
52787;DHT22;38661;53.152;5.846;2022-11-20T07:18:07;-3276.10;90.60
52787;DHT22;38661;53.152;5.846;2022-11-20T07:20:33;-3276.10;90.70
52787;DHT22;38661;53.152;5.846;2022-11-20T07:22:59;-3276.10;90.70
52787;DHT22;38661;53.152;5.846;2022-11-20T07:25:26;-3276.10;90.80
52787;DHT22;38661;53.152;5.846;2022-11-20T07:27:52;-3276.20;91.10
52787;DHT22;38661;53.152;5.846;2022-11-20T07:30:18;-3276.20;90.90
52787;DHT22;38661;53.152;5.846;2022-11-20T07:32:50;-3276.30;91.10
52787;DHT22;38661;53.152;5.846;2022-11-20T07:35:16;-3276.30;91.10
52787;DHT22;38661;53.152;5.846;2022-11-20T07:37:42;-3276.40;91.50
52787;DHT22;38661;53.152;5.846;2022-11-20T07:40:08;-3276.40;91.40
52787;DHT22;38661;53.152;5.846;2022-11-20T07:42:33;-3276.50;91.40
52787;DHT22;38661;53.152;5.846;2022-11-20T07:44:59;-3276.50;91.30
52787;DHT22;38661;53.152;5.846;2022-11-20T07:47:25;-3276.50;91.30
52787;DHT22;38661;53.152;5.846;2022-11-20T07:49:50;-3276.50;91.10
52787;DHT22;38661;53.152;5.846;2022-11-20T07:52:16;-3276.50;91.00
52787;DHT22;38661;53.152;5.846;2022-11-20T07:54:42;-3276.50;90.80
52787;DHT22;38661;53.152;5.846;2022-11-20T07:57:07;-3276.50;90.60
52787;DHT22;38661;53.152;5.846;2022-11-20T07:59:33;-3276.50;90.60
52787;DHT22;38661;53.152;5.846;2022-11-20T08:01:59;-3276.50;90.70
52787;DHT22;38661;53.152;5.846;2022-11-20T08:04:24;-3276.50;90.80
52787;DHT22;38661;53.152;5.846;2022-11-20T08:06:52;-3276.50;90.80
52787;DHT22;38661;53.152;5.846;2022-11-20T08:09:17;-3276.50;90.80
52787;DHT22;38661;53.152;5.846;2022-11-20T08:11:43;-3276.50;90.70
52787;DHT22;38661;53.152;5.846;2022-11-20T08:14:27;-3276.50;90.70
52787;DHT22;38661;53.152;5.846;2022-11-20T08:16:53;-3276.50;90.60
52787;DHT22;38661;53.152;5.846;2022-11-20T08:19:19;-3276.40;90.50
52787;DHT22;38661;53.152;5.846;2022-11-20T08:21:45;-3276.40;90.30
52787;DHT22;38661;53.152;5.846;2022-11-20T08:24:11;-3276.40;90.30
52787;DHT22;38661;53.152;5.846;2022-11-20T08:26:38;-3276.40;90.20
52787;DHT22;38661;53.152;5.846;2022-11-20T08:29:04;-3276.50;90.10
52787;DHT22;38661;53.152;5.846;2022-11-20T08:31:31;-3276.50;89.80
52787;DHT22;38661;53.152;5.846;2022-11-20T08:33:57;-3276.50;89.90
52787;DHT22;38661;53.152;5.846;2022-11-20T08:36:24;-3276.50;90.00
52787;DHT22;38661;53.152;5.846;2022-11-20T08:38:51;-3276.60;90.00
52787;DHT22;38661;53.152;5.846;2022-11-20T08:41:17;-3276.60;90.00
52787;DHT22;38661;53.152;5.846;2022-11-20T08:43:59;-3276.70;90.00
52787;DHT22;38661;53.152;5.846;2022-11-20T08:46:27;-3276.70;89.70
52787;DHT22;38661;53.152;5.846;2022-11-20T08:48:53;-3276.70;89.80
52787;DHT22;38661;53.152;5.846;2022-11-20T08:51:19;-3276.70;89.80
52787;DHT22;38661;53.152;5.846;2022-11-20T08:53:46;0.00;89.80
52787;DHT22;38661;53.152;5.846;2022-11-20T08:56:13;0.00;89.70
52787;DHT22;38661;53.152;5.846;2022-11-20T08:58:40;0.00;89.80
52787;DHT22;38661;53.152;5.846;2022-11-20T09:01:05;0.00;89.80
52787;DHT22;38661;53.152;5.846;2022-11-20T09:03:31;0.10;89.80
52787;DHT22;38661;53.152;5.846;2022-11-20T09:06:02;0.10;89.70
52787;DHT22;38661;53.152;5.846;2022-11-20T09:08:28;0.10;89.60
52787;DHT22;38661;53.152;5.846;2022-11-20T09:10:55;0.10;89.60
52787;DHT22;38661;53.152;5.846;2022-11-20T09:13:23;0.20;89.70
52787;DHT22;38661;53.152;5.846;2022-11-20T09:16:00;0.20;89.60
52787;DHT22;38661;53.152;5.846;2022-11-20T09:18:27;0.20;89.70
52787;DHT22;38661;53.152;5.846;2022-11-20T09:21:01;0.30;89.80
52787;DHT22;38661;53.152;5.846;2022-11-20T09:23:30;0.40;89.70
52787;DHT22;38661;53.152;5.846;2022-11-20T09:25:56;0.40;89.80
52787;DHT22;38661;53.152;5.846;2022-11-20T09:28:25;0.50;89.60
52787;DHT22;38661;53.152;5.846;2022-11-20T09:30:51;0.60;89.70
52787;DHT22;38661;53.152;5.846;2022-11-20T09:33:17;0.50;89.50
52787;DHT22;38661;53.152;5.846;2022-11-20T09:35:43;0.60;89.30
52787;DHT22;38661;53.152;5.846;2022-11-20T09:38:09;0.60;89.20
52787;DHT22;38661;53.152;5.846;2022-11-20T09:40:40;0.70;89.20
52787;DHT22;38661;53.152;5.846;2022-11-20T09:43:20;0.80;89.30
52787;DHT22;38661;53.152;5.846;2022-11-20T09:46:04;0.90;89.30
52787;DHT22;38661;53.152;5.846;2022-11-20T09:51:25;1.20;89.70
52787;DHT22;38661;53.152;5.846;2022-11-20T09:56:41;1.50;89.40
52787;DHT22;38661;53.152;5.846;2022-11-20T10:01:49;1.60;89.10
52787;DHT22;38661;53.152;5.846;2022-11-20T10:04:20;1.70;89.20
52787;DHT22;38661;53.152;5.846;2022-11-20T10:09:37;2.00;89.00
52787;DHT22;38661;53.152;5.846;2022-11-20T10:12:11;2.20;89.00
52787;DHT22;38661;53.152;5.846;2022-11-20T10:14:56;2.40;88.60
52787;DHT22;38661;53.152;5.846;2022-11-20T10:17:48;2.60;88.40
52787;DHT22;38661;53.152;5.846;2022-11-20T10:26:22;2.80;86.40
52787;DHT22;38661;53.152;5.846;2022-11-20T10:31:44;2.90;86.20
52787;DHT22;38661;53.152;5.846;2022-11-20T10:34:23;2.90;86.30
52787;DHT22;38661;53.152;5.846;2022-11-20T10:37:08;2.90;85.90
52787;DHT22;38661;53.152;5.846;2022-11-20T10:42:16;3.00;85.50
52787;DHT22;38661;53.152;5.846;2022-11-20T10:44:50;3.00;84.80
52787;DHT22;38661;53.152;5.846;2022-11-20T10:47:28;3.10;84.60
52787;DHT22;38661;53.152;5.846;2022-11-20T10:50:04;3.30;84.60
52787;DHT22;38661;53.152;5.846;2022-11-20T10:52:47;3.40;83.50
52787;DHT22;38661;53.152;5.846;2022-11-20T10:58:20;3.50;82.60
52787;DHT22;38661;53.152;5.846;2022-11-20T11:00:48;3.40;81.40
52787;DHT22;38661;53.152;5.846;2022-11-20T11:03:24;3.40;81.00
52787;DHT22;38661;53.152;5.846;2022-11-20T11:08:38;3.20;80.00
52787;DHT22;38661;53.152;5.846;2022-11-20T11:11:25;3.20;80.60
52787;DHT22;38661;53.152;5.846;2022-11-20T11:13:52;3.10;79.30
52787;DHT22;38661;53.152;5.846;2022-11-20T11:16:27;3.10;79.10
52787;DHT22;38661;53.152;5.846;2022-11-20T11:19:04;3.00;74.00
52787;DHT22;38661;53.152;5.846;2022-11-20T11:21:30;2.90;74.80
52787;DHT22;38661;53.152;5.846;2022-11-20T11:24:01;2.90;72.80
52787;DHT22;38661;53.152;5.846;2022-11-20T11:26:27;3.00;74.00
52787;DHT22;38661;53.152;5.846;2022-11-20T11:31:25;3.10;75.90
52787;DHT22;38661;53.152;5.846;2022-11-20T11:33:51;3.20;76.60
52787;DHT22;38661;53.152;5.846;2022-11-20T11:36:21;3.30;76.90
52787;DHT22;38661;53.152;5.846;2022-11-20T11:38:51;3.40;76.60
52787;DHT22;38661;53.152;5.846;2022-11-20T11:41:22;3.50;76.00
52787;DHT22;38661;53.152;5.846;2022-11-20T11:43:53;3.90;72.40
52787;DHT22;38661;53.152;5.846;2022-11-20T11:46:39;4.30;71.40
52787;DHT22;38661;53.152;5.846;2022-11-20T11:54:20;5.40;66.70
52787;DHT22;38661;53.152;5.846;2022-11-20T11:56:48;5.30;68.60
52787;DHT22;38661;53.152;5.846;2022-11-20T11:59:28;5.00;68.20
52787;DHT22;38661;53.152;5.846;2022-11-20T12:02:01;4.70;65.60
52787;DHT22;38661;53.152;5.846;2022-11-20T12:04:57;4.40;67.90
52787;DHT22;38661;53.152;5.846;2022-11-20T12:07:43;4.10;68.90
52787;DHT22;38661;53.152;5.846;2022-11-20T12:10:23;4.00;70.40
52787;DHT22;38661;53.152;5.846;2022-11-20T12:13:28;3.90;72.00
52787;DHT22;38661;53.152;5.846;2022-11-20T12:15:56;3.80;70.80
52787;DHT22;38661;53.152;5.846;2022-11-20T12:18:22;3.80;70.60
52787;DHT22;38661;53.152;5.846;2022-11-20T12:26:39;3.50;70.10
52787;DHT22;38661;53.152;5.846;2022-11-20T12:35:06;3.30;70.00
52787;DHT22;38661;53.152;5.846;2022-11-20T12:40:35;3.20;71.70
52787;DHT22;38661;53.152;5.846;2022-11-20T12:46:11;3.10;71.40
52787;DHT22;38661;53.152;5.846;2022-11-20T12:51:15;3.10;71.30
52787;DHT22;38661;53.152;5.846;2022-11-20T12:58:48;3.10;72.20
52787;DHT22;38661;53.152;5.846;2022-11-20T13:01:37;3.10;72.30
52787;DHT22;38661;53.152;5.846;2022-11-20T13:07:11;3.10;72.30
52787;DHT22;38661;53.152;5.846;2022-11-20T13:09:46;3.10;72.40
52787;DHT22;38661;53.152;5.846;2022-11-20T13:12:34;3.10;71.90
52787;DHT22;38661;53.152;5.846;2022-11-20T13:17:58;3.10;72.00
52787;DHT22;38661;53.152;5.846;2022-11-20T13:20:24;3.10;71.80
52787;DHT22;38661;53.152;5.846;2022-11-20T13:22:57;3.10;71.50
52787;DHT22;38661;53.152;5.846;2022-11-20T13:25:30;3.10;71.50
52787;DHT22;38661;53.152;5.846;2022-11-20T13:27:58;3.10;72.00
52787;DHT22;38661;53.152;5.846;2022-11-20T13:30:26;3.10;72.40
52787;DHT22;38661;53.152;5.846;2022-11-20T13:35:32;3.00;72.40
52787;DHT22;38661;53.152;5.846;2022-11-20T13:40:32;3.00;73.50
52787;DHT22;38661;53.152;5.846;2022-11-20T13:43:15;2.90;72.60
52787;DHT22;38661;53.152;5.846;2022-11-20T13:45:41;2.80;73.30
52787;DHT22;38661;53.152;5.846;2022-11-20T13:48:22;2.80;73.60
52787;DHT22;38661;53.152;5.846;2022-11-20T13:51:14;2.70;73.00
52787;DHT22;38661;53.152;5.846;2022-11-20T13:53:48;2.60;73.60
52787;DHT22;38661;53.152;5.846;2022-11-20T14:01:54;2.60;75.20
52787;DHT22;38661;53.152;5.846;2022-11-20T14:04:27;2.50;75.60
52787;DHT22;38661;53.152;5.846;2022-11-20T14:06:54;2.60;76.00
52787;DHT22;38661;53.152;5.846;2022-11-20T14:09:31;2.60;76.70
52787;DHT22;38661;53.152;5.846;2022-11-20T14:11:57;2.60;76.80
52787;DHT22;38661;53.152;5.846;2022-11-20T14:14:28;2.60;77.30
52787;DHT22;38661;53.152;5.846;2022-11-20T14:17:31;2.60;77.60
52787;DHT22;38661;53.152;5.846;2022-11-20T14:20:03;2.70;77.30
52787;DHT22;38661;53.152;5.846;2022-11-20T14:22:30;2.60;76.60
52787;DHT22;38661;53.152;5.846;2022-11-20T14:27:41;2.70;77.10
52787;DHT22;38661;53.152;5.846;2022-11-20T14:30:25;2.60;77.20
52787;DHT22;38661;53.152;5.846;2022-11-20T14:32:55;2.70;77.20
52787;DHT22;38661;53.152;5.846;2022-11-20T14:35:35;2.70;77.60
52787;DHT22;38661;53.152;5.846;2022-11-20T14:38:02;2.70;77.50
52787;DHT22;38661;53.152;5.846;2022-11-20T14:40:33;2.70;77.60
52787;DHT22;38661;53.152;5.846;2022-11-20T14:45:43;2.70;77.80
52787;DHT22;38661;53.152;5.846;2022-11-20T14:48:09;2.70;77.60
52787;DHT22;38661;53.152;5.846;2022-11-20T14:50:38;2.60;77.20
52787;DHT22;38661;53.152;5.846;2022-11-20T14:53:04;2.70;77.00
52787;DHT22;38661;53.152;5.846;2022-11-20T14:55:35;2.60;77.30
52787;DHT22;38661;53.152;5.846;2022-11-20T14:58:18;2.60;77.40
52787;DHT22;38661;53.152;5.846;2022-11-20T15:00:56;2.60;77.50
52787;DHT22;38661;53.152;5.846;2022-11-20T15:03:23;2.60;77.90
52787;DHT22;38661;53.152;5.846;2022-11-20T15:05:50;2.60;78.10
52787;DHT22;38661;53.152;5.846;2022-11-20T15:08:17;2.60;78.20
52787;DHT22;38661;53.152;5.846;2022-11-20T15:10:48;2.60;78.30
52787;DHT22;38661;53.152;5.846;2022-11-20T15:13:32;2.60;78.00
52787;DHT22;38661;53.152;5.846;2022-11-20T15:16:02;2.60;77.80
52787;DHT22;38661;53.152;5.846;2022-11-20T15:18:36;2.60;78.00
52787;DHT22;38661;53.152;5.846;2022-11-20T15:21:06;2.60;78.30
52787;DHT22;38661;53.152;5.846;2022-11-20T15:23:34;2.60;77.90
52787;DHT22;38661;53.152;5.846;2022-11-20T15:26:00;2.50;77.70
52787;DHT22;38661;53.152;5.846;2022-11-20T15:28:35;2.50;77.60
52787;DHT22;38661;53.152;5.846;2022-11-20T15:31:03;2.50;77.20
52787;DHT22;38661;53.152;5.846;2022-11-20T15:33:30;2.50;77.10
52787;DHT22;38661;53.152;5.846;2022-11-20T15:35:56;2.50;77.50
52787;DHT22;38661;53.152;5.846;2022-11-20T15:38:22;2.50;77.90
52787;DHT22;38661;53.152;5.846;2022-11-20T15:40:48;2.50;78.20
52787;DHT22;38661;53.152;5.846;2022-11-20T15:43:14;2.50;78.30
52787;DHT22;38661;53.152;5.846;2022-11-20T15:48:13;2.50;78.20
52787;DHT22;38661;53.152;5.846;2022-11-20T15:53:16;2.40;78.10
52787;DHT22;38661;53.152;5.846;2022-11-20T15:55:42;2.40;78.20
52787;DHT22;38661;53.152;5.846;2022-11-20T15:58:07;2.40;78.30
52787;DHT22;38661;53.152;5.846;2022-11-20T16:00:33;2.40;78.60
52787;DHT22;38661;53.152;5.846;2022-11-20T16:02:59;2.40;78.90
52787;DHT22;38661;53.152;5.846;2022-11-20T16:05:28;2.30;78.60
52787;DHT22;38661;53.152;5.846;2022-11-20T16:07:54;2.40;78.50
52787;DHT22;38661;53.152;5.846;2022-11-20T16:10:20;2.40;78.50
52787;DHT22;38661;53.152;5.846;2022-11-20T16:12:45;2.40;78.20
52787;DHT22;38661;53.152;5.846;2022-11-20T16:15:30;2.40;78.50
52787;DHT22;38661;53.152;5.846;2022-11-20T16:18:13;2.30;78.70
52787;DHT22;38661;53.152;5.846;2022-11-20T16:20:39;2.40;79.10
52787;DHT22;38661;53.152;5.846;2022-11-20T16:23:06;2.40;79.40
52787;DHT22;38661;53.152;5.846;2022-11-20T16:25:32;2.30;79.40
52787;DHT22;38661;53.152;5.846;2022-11-20T16:27:57;2.30;79.40
52787;DHT22;38661;53.152;5.846;2022-11-20T16:30:23;2.30;79.00
52787;DHT22;38661;53.152;5.846;2022-11-20T16:32:49;2.30;78.80
52787;DHT22;38661;53.152;5.846;2022-11-20T16:35:15;2.30;78.90
52787;DHT22;38661;53.152;5.846;2022-11-20T16:37:40;2.30;79.10
52787;DHT22;38661;53.152;5.846;2022-11-20T16:40:07;2.20;79.40
52787;DHT22;38661;53.152;5.846;2022-11-20T16:42:34;2.20;79.60
52787;DHT22;38661;53.152;5.846;2022-11-20T16:45:00;2.20;79.80
52787;DHT22;38661;53.152;5.846;2022-11-20T16:47:26;2.20;79.90
52787;DHT22;38661;53.152;5.846;2022-11-20T16:49:51;2.20;79.60
52787;DHT22;38661;53.152;5.846;2022-11-20T16:52:17;2.10;79.70
52787;DHT22;38661;53.152;5.846;2022-11-20T16:54:43;2.20;79.70
52787;DHT22;38661;53.152;5.846;2022-11-20T16:57:08;2.20;79.70
52787;DHT22;38661;53.152;5.846;2022-11-20T16:59:34;2.20;79.50
52787;DHT22;38661;53.152;5.846;2022-11-20T17:02:00;2.20;79.70
52787;DHT22;38661;53.152;5.846;2022-11-20T17:04:25;2.10;79.60
52787;DHT22;38661;53.152;5.846;2022-11-20T17:06:51;2.20;79.70
52787;DHT22;38661;53.152;5.846;2022-11-20T17:09:17;2.10;79.80
52787;DHT22;38661;53.152;5.846;2022-11-20T17:11:43;2.10;79.80
52787;DHT22;38661;53.152;5.846;2022-11-20T17:14:10;2.10;80.00